Time;durP1;ratioP1;P1;durP2;ratioP2;P2;SDS_P1;SDS_P2;PMS_P1;PMS_P2;Temp;Humidity;BMP_temperature;BMP_pressure;BME280_temperature;BME280_humidity;BME280_pressure;Samples;Min_cycle;Max_cycle;Signal;HPM_P1;HPM_P2
2024/02/22 00:00:02;;;;;;;3.43;3.13;;;7.70;99.90;;;;;;493974;241;28135;-73
2024/02/22 00:02:03;;;;;;;3.43;2.90;;;7.60;99.90;;;;;;493981;241;27861;-74
2024/02/22 00:04:05;;;;;;;3.87;2.40;;;7.70;99.90;;;;;;493974;237;28018;-73
2024/02/22 00:06:06;;;;;;;3.10;2.73;;;7.70;99.90;;;;;;493986;238;28032;-73
2024/02/22 00:08:07;;;;;;;3.50;2.50;;;7.70;99.90;;;;;;493921;241;28367;-74
2024/02/22 00:10:10;;;;;;;2.87;2.20;;;7.70;99.90;;;;;;493991;241;28089;-73
2024/02/22 00:12:10;;;;;;;3.70;2.37;;;7.70;99.90;;;;;;493942;241;28457;-73
2024/02/22 00:14:13;;;;;;;2.17;2.03;;;7.60;99.90;;;;;;493977;241;28644;-73
2024/02/22 00:16:15;;;;;;;2.60;2.40;;;7.70;99.90;;;;;;493846;241;28531;-73
2024/02/22 00:18:13;;;;;;;2.23;2.03;;;7.70;99.90;;;;;;493814;241;28040;-74
2024/02/22 00:20:16;;;;;;;4.97;2.20;;;7.60;99.90;;;;;;493886;241;27808;-73
2024/02/22 00:22:16;;;;;;;4.43;2.40;;;7.70;99.90;;;;;;493927;241;28070;-73
2024/02/22 00:24:17;;;;;;;2.70;2.20;;;7.70;99.90;;;;;;494013;241;27859;-75
2024/02/22 00:26:19;;;;;;;1.97;1.87;;;7.70;99.90;;;;;;493981;241;27925;-73
2024/02/22 00:28:20;;;;;;;2.43;2.20;;;7.70;99.90;;;;;;493699;241;28037;-74
2024/02/22 00:30:23;;;;;;;2.17;2.07;;;7.70;99.90;;;;;;493980;241;27940;-73
2024/02/22 00:32:22;;;;;;;1.97;1.87;;;7.70;99.90;;;;;;493917;241;27944;-74
2024/02/22 00:34:23;;;;;;;1.90;1.73;;;7.70;99.90;;;;;;494004;241;28107;-74
2024/02/22 00:36:25;;;;;;;4.33;2.60;;;7.70;99.90;;;;;;494005;241;28015;-74
2024/02/22 00:38:26;;;;;;;2.30;2.10;;;7.70;99.90;;;;;;493926;241;27990;-74
2024/02/22 00:40:27;;;;;;;1.90;1.80;;;7.70;99.90;;;;;;493959;241;27803;-73
2024/02/22 00:42:28;;;;;;;2.03;1.93;;;7.70;99.90;;;;;;493989;241;28081;-74
2024/02/22 00:44:29;;;;;;;3.57;1.77;;;7.70;99.90;;;;;;494008;241;28135;-74
2024/02/22 00:46:31;;;;;;;1.80;1.70;;;7.70;99.90;;;;;;493927;237;28594;-73
2024/02/22 00:48:32;;;;;;;3.97;2.10;;;7.70;99.90;;;;;;493965;241;28547;-74
2024/02/22 00:50:33;;;;;;;2.03;1.70;;;7.70;99.90;;;;;;494011;241;28481;-73
2024/02/22 00:52:34;;;;;;;2.40;1.47;;;7.70;99.90;;;;;;494002;241;28351;-74
2024/02/22 00:54:36;;;;;;;1.90;1.80;;;7.70;99.90;;;;;;493985;241;28549;-73
2024/02/22 00:56:37;;;;;;;6.50;2.07;;;7.70;99.90;;;;;;493865;241;27943;-74
2024/02/22 00:58:39;;;;;;;1.93;1.80;;;7.70;99.90;;;;;;493946;241;27508;-74
2024/02/22 01:00:39;;;;;;;2.20;1.90;;;7.80;99.90;;;;;;494004;241;28011;-76
2024/02/22 01:02:41;;;;;;;1.60;1.50;;;7.70;99.90;;;;;;493971;241;27831;-74
2024/02/22 01:04:43;;;;;;;1.60;1.50;;;7.70;99.90;;;;;;493982;241;28328;-73
2024/02/22 01:06:43;;;;;;;2.90;1.57;;;7.80;99.90;;;;;;493868;241;27859;-73
2024/02/22 01:08:44;;;;;;;1.60;1.50;;;7.80;99.90;;;;;;493985;241;27702;-73
2024/02/22 01:10:46;;;;;;;1.80;1.70;;;7.80;99.90;;;;;;494012;241;28129;-76
2024/02/22 01:12:47;;;;;;;2.50;1.80;;;7.80;99.90;;;;;;493975;241;27835;-74
2024/02/22 01:14:48;;;;;;;1.50;1.40;;;7.80;99.90;;;;;;493985;241;27983;-74
2024/02/22 01:16:49;;;;;;;1.63;1.37;;;7.80;99.90;;;;;;493898;241;27977;-74
2024/02/22 01:18:51;;;;;;;2.10;1.77;;;7.80;99.90;;;;;;493991;241;27777;-74
2024/02/22 01:20:52;;;;;;;1.53;1.43;;;7.80;99.90;;;;;;493981;241;28009;-74
2024/02/22 01:22:53;;;;;;;1.50;1.40;;;7.80;99.90;;;;;;493955;241;27703;-73
2024/02/22 01:24:54;;;;;;;1.33;1.23;;;7.80;99.90;;;;;;493962;241;28440;-74
2024/02/22 01:26:56;;;;;;;1.40;1.30;;;7.80;99.90;;;;;;493906;241;28625;-73
2024/02/22 01:28:57;;;;;;;1.90;1.53;;;7.80;99.90;;;;;;494020;241;28064;-73
2024/02/22 01:30:58;;;;;;;1.43;1.33;;;7.80;99.90;;;;;;494022;241;28420;-74
2024/02/22 01:32:59;;;;;;;1.27;1.17;;;7.80;99.90;;;;;;493953;239;28269;-74
2024/02/22 01:35:01;;;;;;;2.10;1.30;;;7.80;99.90;;;;;;493942;241;28071;-73
2024/02/22 01:37:02;;;;;;;1.17;1.17;;;7.80;99.90;;;;;;493946;241;28086;-74
2024/02/22 01:39:06;;;;;;;1.47;1.37;;;7.80;99.90;;;;;;494010;237;28084;-74
2024/02/22 01:41:07;;;;;;;1.67;1.40;;;7.80;99.90;;;;;;493892;241;28101;-74
2024/02/22 01:43:06;;;;;;;1.37;1.37;;;7.80;99.90;;;;;;493772;241;27912;-73
2024/02/22 01:45:07;;;;;;;1.60;1.50;;;7.80;99.90;;;;;;493878;241;27865;-73
2024/02/22 01:47:08;;;;;;;4.10;1.57;;;7.80;99.90;;;;;;493936;241;28169;-75
2024/02/22 01:49:09;;;;;;;1.50;1.30;;;7.80;99.90;;;;;;493990;241;27831;-73
2024/02/22 01:51:11;;;;;;;1.50;1.40;;;7.90;99.90;;;;;;493976;237;27732;-73
2024/02/22 01:53:12;;;;;;;1.70;1.60;;;7.80;99.90;;;;;;493956;241;28276;-73
2024/02/22 01:55:13;;;;;;;1.50;1.40;;;7.90;99.90;;;;;;493973;241;28178;-74
2024/02/22 01:57:14;;;;;;;1.60;1.50;;;7.80;99.90;;;;;;493896;241;28017;-74
2024/02/22 01:59:16;;;;;;;1.43;1.33;;;7.90;99.90;;;;;;493965;241;28026;-73
2024/02/22 02:01:17;;;;;;;1.50;1.40;;;7.90;99.90;;;;;;493966;241;28183;-74
2024/02/22 02:03:20;;;;;;;1.17;1.17;;;7.90;99.90;;;;;;493955;241;28613;-74
2024/02/22 02:05:19;;;;;;;1.00;1.00;;;7.90;99.90;;;;;;493950;241;28469;-73
2024/02/22 02:07:21;;;;;;;1.50;1.40;;;7.90;99.90;;;;;;493901;241;28146;-74
2024/02/22 02:09:22;;;;;;;1.33;1.23;;;7.90;99.90;;;;;;493971;241;28375;-74
2024/02/22 02:11:23;;;;;;;2.30;1.30;;;7.90;99.90;;;;;;493928;241;28486;-73
2024/02/22 02:13:24;;;;;;;1.20;1.20;;;7.90;99.90;;;;;;494019;241;27966;-75
2024/02/22 02:15:26;;;;;;;1.53;1.43;;;7.90;99.90;;;;;;493958;241;27810;-74
2024/02/22 02:17:27;;;;;;;1.50;1.37;;;7.90;99.90;;;;;;493921;241;28039;-73
2024/02/22 02:19:29;;;;;;;0.80;0.80;;;8.00;99.90;;;;;;493963;241;27782;-74
2024/02/22 02:21:29;;;;;;;1.63;1.20;;;7.90;99.90;;;;;;493940;241;28077;-74
2024/02/22 02:23:31;;;;;;;1.00;1.00;;;7.90;99.90;;;;;;494008;241;27989;-74
2024/02/22 02:25:32;;;;;;;1.20;1.20;;;8.00;99.90;;;;;;493988;241;27936;-73
2024/02/22 02:27:34;;;;;;;1.13;1.13;;;7.90;99.90;;;;;;493886;241;27649;-74
2024/02/22 02:29:34;;;;;;;1.10;1.00;;;8.00;99.90;;;;;;493925;241;27575;-74
2024/02/22 02:31:36;;;;;;;1.00;1.00;;;8.00;99.90;;;;;;493980;241;27818;-73
2024/02/22 02:33:37;;;;;;;1.00;1.00;;;7.90;99.90;;;;;;493999;237;28096;-75
2024/02/22 02:35:38;;;;;;;1.00;1.00;;;8.00;99.90;;;;;;493947;241;27987;-72
2024/02/22 02:37:39;;;;;;;1.47;1.00;;;8.00;99.90;;;;;;493900;241;28193;-74
2024/02/22 02:39:41;;;;;;;1.57;1.30;;;8.00;99.90;;;;;;493965;241;28530;-73
2024/02/22 02:41:42;;;;;;;0.80;0.80;;;8.00;99.90;;;;;;493987;237;28379;-73
2024/02/22 02:43:43;;;;;;;1.00;1.00;;;8.00;99.90;;;;;;493970;241;28530;-74
2024/02/22 02:45:44;;;;;;;0.97;0.97;;;8.00;99.90;;;;;;493942;241;28467;-73
2024/02/22 02:47:46;;;;;;;0.90;0.90;;;8.00;99.90;;;;;;493831;241;28412;-73
2024/02/22 02:49:47;;;;;;;1.80;1.10;;;8.00;99.90;;;;;;493976;241;27874;-75
2024/02/22 02:51:48;;;;;;;1.10;1.10;;;8.00;99.90;;;;;;493950;237;27955;-73
2024/02/22 02:53:49;;;;;;;1.07;1.07;;;7.90;99.90;;;;;;493933;237;27981;-74
2024/02/22 02:55:51;;;;;;;1.00;1.00;;;7.90;99.90;;;;;;493899;241;28006;-73
2024/02/22 02:57:52;;;;;;;0.83;0.83;;;8.00;99.90;;;;;;493882;241;27925;-73
2024/02/22 02:59:53;;;;;;;1.00;1.00;;;8.00;99.90;;;;;;493955;241;28013;-75
2024/02/22 03:01:54;;;;;;;0.90;0.90;;;7.90;99.90;;;;;;493987;241;27476;-73
2024/02/22 03:03:56;;;;;;;1.10;1.10;;;8.00;99.90;;;;;;493797;241;27981;-73
2024/02/22 03:05:57;;;;;;;1.20;1.10;;;8.00;99.90;;;;;;493880;241;27594;-73
2024/02/22 03:07:58;;;;;;;1.07;1.07;;;8.00;99.90;;;;;;493962;241;28041;-73
2024/02/22 03:09:59;;;;;;;1.43;1.30;;;8.00;99.90;;;;;;493857;241;27645;-74
2024/02/22 03:12:01;;;;;;;0.97;0.97;;;8.00;99.90;;;;;;494002;241;27887;-74
2024/02/22 03:14:02;;;;;;;1.03;1.00;;;8.00;99.90;;;;;;493984;241;27501;-73
2024/02/22 03:16:04;;;;;;;1.17;1.07;;;8.00;99.90;;;;;;493977;241;28928;-73
2024/02/22 03:18:05;;;;;;;1.00;1.00;;;8.00;99.90;;;;;;493894;241;28449;-73
2024/02/22 03:20:09;;;;;;;1.00;1.00;;;8.00;99.90;;;;;;493949;241;28084;-74
2024/02/22 03:22:07;;;;;;;1.03;1.03;;;8.00;99.90;;;;;;493841;241;28394;-74
2024/02/22 03:24:08;;;;;;;1.53;1.17;;;8.00;99.90;;;;;;493914;241;28374;-74
2024/02/22 03:26:09;;;;;;;1.13;1.10;;;8.00;99.90;;;;;;494004;241;28570;-75
2024/02/22 03:28:12;;;;;;;0.90;0.90;;;7.90;99.90;;;;;;493980;241;27919;-73
2024/02/22 03:30:16;;;;;;;1.43;1.13;;;8.00;99.90;;;;;;493922;241;28115;-74
2024/02/22 03:32:14;;;;;;;1.43;1.13;;;8.00;99.90;;;;;;493846;241;27949;-73
2024/02/22 03:34:14;;;;;;;1.23;1.10;;;8.00;99.90;;;;;;493958;241;27979;-74
2024/02/22 03:36:16;;;;;;;1.10;1.00;;;8.00;99.90;;;;;;493862;241;27897;-75
2024/02/22 03:38:19;;;;;;;1.23;1.13;;;8.00;99.90;;;;;;493921;241;27942;-74
2024/02/22 03:40:18;;;;;;;1.20;1.10;;;8.00;99.90;;;;;;493784;241;27873;-73
2024/02/22 03:42:19;;;;;;;1.10;1.10;;;8.00;99.90;;;;;;493985;241;28263;-73
2024/02/22 03:44:21;;;;;;;1.47;1.10;;;8.00;99.90;;;;;;493982;241;27948;-73
2024/02/22 03:46:22;;;;;;;0.93;0.93;;;8.00;99.90;;;;;;494000;241;27778;-74
2024/02/22 03:48:23;;;;;;;1.03;1.03;;;8.00;99.90;;;;;;493927;241;27827;-73
2024/02/22 03:50:24;;;;;;;1.10;1.10;;;8.00;99.90;;;;;;493981;241;27854;-74
2024/02/22 03:52:26;;;;;;;1.00;1.00;;;8.00;99.90;;;;;;493972;241;28060;-73
2024/02/22 03:54:27;;;;;;;1.10;1.00;;;8.10;99.90;;;;;;493992;241;28363;-73
2024/02/22 03:56:28;;;;;;;0.90;0.90;;;8.00;99.90;;;;;;493946;241;28586;-74
2024/02/22 03:58:29;;;;;;;1.10;1.10;;;8.10;99.90;;;;;;494003;241;28509;-74
2024/02/22 04:00:32;;;;;;;3.43;1.00;;;8.10;99.90;;;;;;493969;239;28388;-73
2024/02/22 04:02:32;;;;;;;1.27;1.00;;;8.10;99.90;;;;;;493940;241;28438;-74
2024/02/22 04:04:33;;;;;;;1.73;1.00;;;8.10;99.90;;;;;;494027;241;28141;-73
2024/02/22 04:06:34;;;;;;;0.90;0.90;;;8.10;99.90;;;;;;493929;241;27842;-73
2024/02/22 04:08:36;;;;;;;0.87;0.87;;;8.10;99.90;;;;;;493949;241;27950;-74
2024/02/22 04:10:37;;;;;;;1.03;0.93;;;8.10;99.90;;;;;;493946;241;28054;-73
2024/02/22 04:12:38;;;;;;;0.90;0.90;;;8.10;99.90;;;;;;493967;241;28088;-75
2024/02/22 04:14:39;;;;;;;1.00;0.90;;;8.10;99.90;;;;;;493981;241;27964;-74
2024/02/22 04:16:41;;;;;;;1.20;0.73;;;8.10;99.90;;;;;;493917;241;27911;-74
2024/02/22 04:18:42;;;;;;;0.90;0.90;;;8.10;99.90;;;;;;493946;241;27959;-73
2024/02/22 04:20:43;;;;;;;1.20;1.10;;;8.10;99.90;;;;;;493970;241;28017;-74
2024/02/22 04:22:46;;;;;;;2.60;1.10;;;8.10;99.90;;;;;;493990;238;27976;-74
2024/02/22 04:24:46;;;;;;;1.57;1.20;;;8.10;99.90;;;;;;493928;241;27819;-74
2024/02/22 04:26:47;;;;;;;2.20;1.00;;;8.10;99.90;;;;;;493904;241;28143;-73
2024/02/22 04:28:48;;;;;;;0.80;0.80;;;8.20;99.90;;;;;;493957;241;27946;-74
2024/02/22 04:30:49;;;;;;;1.57;0.90;;;8.10;99.90;;;;;;494032;241;27956;-74
2024/02/22 04:32:51;;;;;;;0.80;0.80;;;8.20;99.90;;;;;;494010;241;28594;-74
2024/02/22 04:34:52;;;;;;;1.90;0.80;;;8.20;99.90;;;;;;494002;241;28378;-73
2024/02/22 04:36:53;;;;;;;1.37;1.00;;;8.10;99.90;;;;;;493893;241;28478;-73
2024/02/22 04:38:55;;;;;;;1.00;1.00;;;8.20;99.90;;;;;;493980;241;28392;-73
2024/02/22 04:40:56;;;;;;;0.70;0.70;;;8.20;99.90;;;;;;494040;241;28442;-73
2024/02/22 04:42:57;;;;;;;1.00;0.80;;;8.20;99.90;;;;;;493995;241;27986;-73
2024/02/22 04:44:58;;;;;;;0.90;0.90;;;8.20;99.90;;;;;;494002;237;28007;-73
2024/02/22 04:46:59;;;;;;;0.80;0.80;;;8.20;99.90;;;;;;493887;241;28005;-74
2024/02/22 04:49:01;;;;;;;0.97;0.97;;;8.20;99.90;;;;;;494019;241;28116;-75
2024/02/22 04:51:03;;;;;;;0.80;0.80;;;8.10;99.90;;;;;;493997;241;27808;-73
2024/02/22 04:53:06;;;;;;;1.13;0.97;;;8.10;99.90;;;;;;493938;241;27977;-74
2024/02/22 04:55:04;;;;;;;1.40;0.93;;;8.10;99.90;;;;;;493788;241;27991;-73
2024/02/22 04:57:06;;;;;;;2.80;1.00;;;8.10;99.90;;;;;;493915;241;27976;-73
2024/02/22 04:59:08;;;;;;;0.90;0.90;;;8.10;99.90;;;;;;493897;241;28036;-76
2024/02/22 05:01:08;;;;;;;1.33;1.00;;;8.10;99.90;;;;;;493976;241;27578;-73
2024/02/22 05:03:09;;;;;;;0.90;0.90;;;8.10;99.90;;;;;;493852;241;27994;-73
2024/02/22 05:05:11;;;;;;;1.43;0.97;;;8.10;99.90;;;;;;493971;241;27981;-73
2024/02/22 05:07:13;;;;;;;1.20;1.20;;;8.10;99.90;;;;;;493956;241;27922;-73
2024/02/22 05:09:13;;;;;;;1.20;1.20;;;8.10;99.90;;;;;;493994;241;28048;-74
2024/02/22 05:11:14;;;;;;;0.93;0.93;;;8.20;99.90;;;;;;494004;241;28448;-73
2024/02/22 05:13:16;;;;;;;1.20;1.20;;;8.10;99.90;;;;;;493954;237;28478;-74
2024/02/22 05:15:17;;;;;;;1.10;1.00;;;8.10;99.90;;;;;;493978;241;28932;-73
2024/02/22 05:17:19;;;;;;;1.33;1.10;;;8.10;99.90;;;;;;493959;241;28390;-74
2024/02/22 05:19:19;;;;;;;1.10;1.10;;;8.10;99.90;;;;;;493945;241;28591;-74
2024/02/22 05:21:21;;;;;;;1.00;1.00;;;8.10;99.90;;;;;;493960;241;28068;-73
2024/02/22 05:23:22;;;;;;;1.00;1.00;;;8.10;99.90;;;;;;493983;240;28017;-74
2024/02/22 05:25:23;;;;;;;1.00;1.00;;;8.10;99.90;;;;;;494021;241;28078;-74
2024/02/22 05:27:24;;;;;;;1.30;1.23;;;8.10;99.90;;;;;;493968;241;28512;-73
2024/02/22 05:29:26;;;;;;;1.23;1.13;;;8.10;99.90;;;;;;494004;241;27850;-74
2024/02/22 05:31:30;;;;;;;1.40;1.30;;;8.10;99.90;;;;;;493965;241;27909;-73
2024/02/22 05:33:32;;;;;;;1.93;1.03;;;8.10;99.90;;;;;;493973;241;29342;-73
2024/02/22 05:35:32;;;;;;;1.03;1.03;;;8.10;99.90;;;;;;493973;241;27961;-73
2024/02/22 05:37:34;;;;;;;1.10;1.10;;;8.10;99.90;;;;;;493949;241;28005;-74
2024/02/22 05:39:35;;;;;;;1.40;1.30;;;8.10;99.90;;;;;;493973;241;28132;-74
2024/02/22 05:41:37;;;;;;;1.27;1.20;;;8.10;99.90;;;;;;493984;241;27826;-73
2024/02/22 05:43:37;;;;;;;1.50;1.17;;;8.10;99.90;;;;;;493995;241;27940;-73
2024/02/22 05:45:45;;;;;;;1.00;1.00;;;8.10;99.90;;;;;;493957;241;28033;-73
2024/02/22 05:47:48;;;;;;;1.20;1.10;;;8.10;99.90;;;;;;493930;241;27945;-74
2024/02/22 05:49:47;;;;;;;1.33;1.23;;;8.20;99.90;;;;;;493899;241;27773;-73
2024/02/22 05:51:48;;;;;;;1.20;1.20;;;8.20;99.90;;;;;;493945;241;27937;-73
2024/02/22 05:53:50;;;;;;;0.97;0.97;;;8.20;99.90;;;;;;493981;241;27969;-73
2024/02/22 05:55:51;;;;;;;1.27;1.23;;;8.20;99.90;;;;;;494001;241;27765;-73
2024/02/22 05:57:52;;;;;;;1.00;1.00;;;8.20;99.90;;;;;;493952;241;27868;-74
2024/02/22 05:59:53;;;;;;;1.07;1.07;;;8.20;99.90;;;;;;494011;241;28069;-72
2024/02/22 06:01:54;;;;;;;1.20;1.07;;;8.20;99.90;;;;;;494014;241;27708;-74
2024/02/22 06:03:56;;;;;;;1.20;1.10;;;8.20;99.90;;;;;;494009;241;28334;-73
2024/02/22 06:05:57;;;;;;;1.33;1.23;;;8.20;99.90;;;;;;494014;241;27945;-75
2024/02/22 06:07:58;;;;;;;1.13;1.13;;;8.20;99.90;;;;;;493966;241;28056;-73
2024/02/22 06:09:59;;;;;;;1.30;1.20;;;8.20;99.90;;;;;;494012;241;27948;-72
2024/02/22 06:12:01;;;;;;;1.10;1.10;;;8.20;99.90;;;;;;493969;241;27847;-73
2024/02/22 06:14:02;;;;;;;1.13;1.13;;;8.20;99.90;;;;;;494015;241;28092;-75
2024/02/22 06:16:03;;;;;;;1.73;1.20;;;8.30;99.90;;;;;;493975;241;28168;-73
2024/02/22 06:18:04;;;;;;;1.17;1.17;;;8.20;99.90;;;;;;493935;241;28558;-73
2024/02/22 06:20:06;;;;;;;1.17;1.10;;;8.30;99.90;;;;;;493973;241;28223;-73
2024/02/22 06:22:08;;;;;;;1.00;1.00;;;8.30;99.90;;;;;;493990;241;28523;-73
2024/02/22 06:24:08;;;;;;;1.10;1.10;;;8.30;99.90;;;;;;493906;241;28478;-74
2024/02/22 06:26:09;;;;;;;1.53;1.43;;;8.30;99.90;;;;;;493989;241;27927;-73
2024/02/22 06:28:11;;;;;;;1.20;1.20;;;8.30;99.90;;;;;;493757;241;27966;-73
2024/02/22 06:30:14;;;;;;;1.30;1.20;;;8.30;99.90;;;;;;493797;241;27858;-73
2024/02/22 06:32:13;;;;;;;1.30;1.20;;;8.30;99.90;;;;;;493901;241;27701;-73
2024/02/22 06:34:14;;;;;;;1.73;1.63;;;8.30;99.90;;;;;;493920;241;27623;-74
2024/02/22 06:36:16;;;;;;;1.20;1.10;;;8.30;99.90;;;;;;493955;241;27980;-73
2024/02/22 06:38:17;;;;;;;1.20;1.20;;;8.30;99.90;;;;;;493899;241;28213;-73
2024/02/22 06:40:18;;;;;;;1.17;1.07;;;8.30;99.90;;;;;;493843;241;28191;-72
2024/02/22 06:42:19;;;;;;;1.10;1.10;;;8.30;99.90;;;;;;494020;241;27979;-72
2024/02/22 06:44:21;;;;;;;1.00;1.00;;;8.40;99.90;;;;;;493989;241;28198;-73
2024/02/22 06:46:24;;;;;;;2.70;1.40;;;8.40;99.90;;;;;;493962;241;28071;-72
2024/02/22 06:48:23;;;;;;;1.10;1.10;;;8.40;99.90;;;;;;493821;241;27981;-73
2024/02/22 06:50:24;;;;;;;1.03;1.03;;;8.40;99.90;;;;;;493970;241;28035;-74
2024/02/22 06:52:26;;;;;;;1.00;1.00;;;8.40;99.90;;;;;;493986;241;28332;-73
2024/02/22 06:54:27;;;;;;;1.33;1.30;;;8.40;99.90;;;;;;493968;241;28524;-73
2024/02/22 06:56:28;;;;;;;1.17;1.17;;;8.40;99.90;;;;;;493915;241;28379;-76
2024/02/22 06:58:29;;;;;;;2.70;1.10;;;8.40;99.90;;;;;;493970;241;27988;-73
2024/02/22 07:00:32;;;;;;;1.90;1.07;;;8.40;99.90;;;;;;493987;241;27997;-74
2024/02/22 07:02:32;;;;;;;1.00;1.00;;;8.40;99.90;;;;;;493897;241;28083;-74
2024/02/22 07:04:33;;;;;;;1.00;1.00;;;8.40;99.90;;;;;;493970;241;28082;-73
2024/02/22 07:06:34;;;;;;;1.13;1.00;;;8.40;99.90;;;;;;493946;241;27874;-73
2024/02/22 07:08:36;;;;;;;1.00;1.00;;;8.50;99.90;;;;;;494017;241;27907;-73
2024/02/22 07:10:37;;;;;;;1.00;1.00;;;8.50;99.90;;;;;;493969;241;28077;-74
2024/02/22 07:12:38;;;;;;;1.50;1.40;;;8.50;99.90;;;;;;493904;241;27976;-72
2024/02/22 07:14:40;;;;;;;1.20;1.20;;;8.50;99.90;;;;;;493876;241;27645;-74
2024/02/22 07:16:46;;;;;;;1.00;1.00;;;8.50;99.90;;;;;;493902;241;27863;-72
2024/02/22 07:18:45;;;;;;;1.00;1.00;;;8.50;99.90;;;;;;493912;241;27992;-75
2024/02/22 07:20:46;;;;;;;1.03;1.03;;;8.60;99.90;;;;;;494012;241;27910;-73
2024/02/22 07:22:48;;;;;;;1.17;1.17;;;8.60;99.90;;;;;;494001;241;28159;-74
2024/02/22 07:24:48;;;;;;;1.40;1.30;;;8.60;99.90;;;;;;493920;241;27948;-74
2024/02/22 07:26:50;;;;;;;1.40;1.30;;;8.60;99.90;;;;;;493956;241;27961;-74
2024/02/22 07:28:51;;;;;;;0.93;0.93;;;8.60;99.90;;;;;;493995;241;27789;-75
2024/02/22 07:30:52;;;;;;;1.07;1.07;;;8.60;99.90;;;;;;493971;241;28042;-74
2024/02/22 07:32:53;;;;;;;1.00;1.00;;;8.60;99.90;;;;;;493877;241;27981;-74
2024/02/22 07:34:55;;;;;;;1.70;1.00;;;8.60;99.90;;;;;;493956;241;27808;-74
2024/02/22 07:36:56;;;;;;;1.00;0.90;;;8.60;99.90;;;;;;493932;241;27712;-73
2024/02/22 07:38:57;;;;;;;1.30;1.20;;;8.70;99.90;;;;;;493983;241;28014;-74
2024/02/22 07:41:03;;;;;;;1.30;1.20;;;8.70;99.90;;;;;;493963;241;28431;-74
2024/02/22 07:43:00;;;;;;;1.10;1.10;;;8.70;99.90;;;;;;493749;241;28543;-73
2024/02/22 07:45:01;;;;;;;4.33;3.00;;;8.70;99.90;;;;;;493994;241;28728;-74
2024/02/22 07:47:02;;;;;;;1.23;1.20;;;8.70;99.90;;;;;;493958;241;28479;-74
2024/02/22 07:49:03;;;;;;;1.30;1.20;;;8.70;99.90;;;;;;493970;241;28544;-74
2024/02/22 07:51:05;;;;;;;0.87;0.87;;;8.70;99.90;;;;;;493967;241;28071;-74
2024/02/22 07:53:09;;;;;;;1.53;1.20;;;8.70;99.90;;;;;;493929;241;27735;-75
2024/02/22 07:55:10;;;;;;;1.37;1.00;;;8.70;99.90;;;;;;493992;241;27719;-74
2024/02/22 07:57:12;;;;;;;1.27;1.00;;;8.70;99.90;;;;;;493938;241;28141;-71
2024/02/22 07:59:13;;;;;;;1.20;1.10;;;8.70;99.90;;;;;;493944;241;27763;-73
2024/02/22 08:01:17;;;;;;;1.17;1.17;;;8.80;99.90;;;;;;493925;241;27978;-74
2024/02/22 08:03:15;;;;;;;0.90;0.90;;;8.70;99.90;;;;;;493736;241;28043;-74
2024/02/22 08:05:17;;;;;;;0.90;0.90;;;8.80;99.90;;;;;;493946;241;28017;-74
2024/02/22 08:07:18;;;;;;;1.30;1.20;;;8.80;99.90;;;;;;493747;241;28011;-74
2024/02/22 08:09:19;;;;;;;1.00;1.00;;;8.80;99.90;;;;;;493942;237;28512;-74
2024/02/22 08:11:20;;;;;;;1.50;1.40;;;8.80;99.90;;;;;;493932;241;28652;-73
2024/02/22 08:13:21;;;;;;;1.03;1.03;;;8.80;99.90;;;;;;494003;241;28498;-77
2024/02/22 08:15:23;;;;;;;1.20;1.00;;;8.80;99.90;;;;;;493989;241;28137;-74
2024/02/22 08:17:24;;;;;;;1.10;1.10;;;8.80;99.90;;;;;;493903;241;28363;-75
2024/02/22 08:19:25;;;;;;;1.63;1.20;;;8.80;99.90;;;;;;493976;241;27932;-74
2024/02/22 08:21:26;;;;;;;2.37;1.10;;;8.80;99.90;;;;;;493982;241;27922;-74
2024/02/22 08:23:28;;;;;;;4.43;1.00;;;8.90;99.90;;;;;;493994;239;28021;-76
2024/02/22 08:25:29;;;;;;;0.90;0.90;;;8.80;99.90;;;;;;493985;241;28004;-74
2024/02/22 08:27:30;;;;;;;1.93;1.83;;;8.80;99.90;;;;;;493948;241;27991;-74
2024/02/22 08:29:31;;;;;;;1.10;1.10;;;8.80;99.90;;;;;;493819;241;28046;-74
2024/02/22 08:31:33;;;;;;;1.07;1.07;;;8.90;99.90;;;;;;493838;241;27469;-73
2024/02/22 08:33:34;;;;;;;0.93;0.93;;;8.90;99.90;;;;;;494012;241;27971;-74
2024/02/22 08:35:35;;;;;;;1.10;1.10;;;8.90;99.90;;;;;;494000;237;27796;-74
2024/02/22 08:37:36;;;;;;;0.90;0.90;;;8.90;99.90;;;;;;493910;237;28004;-74
2024/02/22 08:39:38;;;;;;;1.13;1.13;;;9.00;99.90;;;;;;494008;241;28719;-75
2024/02/22 08:41:39;;;;;;;1.33;1.23;;;8.90;99.90;;;;;;493778;241;28297;-73
2024/02/22 08:43:42;;;;;;;1.03;1.00;;;9.00;99.90;;;;;;493926;241;28295;-79
2024/02/22 08:45:42;;;;;;;1.00;1.00;;;9.00;99.90;;;;;;493792;241;28464;-73
2024/02/22 08:47:43;;;;;;;1.10;1.10;;;9.00;99.90;;;;;;493975;241;27919;-74
2024/02/22 08:49:45;;;;;;;1.37;1.10;;;9.00;99.90;;;;;;493994;241;27850;-73
2024/02/22 08:51:45;;;;;;;1.03;0.93;;;9.10;99.90;;;;;;493973;241;27830;-74
2024/02/22 08:53:47;;;;;;;1.30;1.20;;;9.10;99.90;;;;;;493948;237;27929;-74
2024/02/22 08:55:48;;;;;;;4.10;1.10;;;9.10;99.90;;;;;;494008;241;27866;-75
2024/02/22 08:57:49;;;;;;;1.13;1.00;;;9.10;99.90;;;;;;493942;241;27994;-74
2024/02/22 08:59:51;;;;;;;1.13;1.13;;;9.10;99.90;;;;;;493965;241;28073;-74
2024/02/22 09:01:53;;;;;;;1.13;1.03;;;9.10;99.90;;;;;;493941;241;27923;-74
2024/02/22 09:03:53;;;;;;;0.90;0.90;;;9.10;99.90;;;;;;493925;237;27965;-73
2024/02/22 09:05:54;;;;;;;0.97;0.97;;;9.10;99.90;;;;;;494003;241;28092;-76
2024/02/22 09:07:55;;;;;;;1.20;1.10;;;9.10;99.90;;;;;;493926;241;27960;-74
2024/02/22 09:09:57;;;;;;;0.90;0.90;;;9.20;99.90;;;;;;493955;241;28030;-75
2024/02/22 09:11:58;;;;;;;1.13;1.10;;;9.20;99.90;;;;;;493958;241;27535;-74
2024/02/22 09:13:59;;;;;;;1.03;0.97;;;9.20;99.90;;;;;;493980;241;27955;-73
2024/02/22 09:16:01;;;;;;;1.13;1.13;;;9.20;99.90;;;;;;493976;241;28544;-75
2024/02/22 09:18:02;;;;;;;1.70;0.90;;;9.20;99.90;;;;;;493937;241;28218;-73
2024/02/22 09:20:06;;;;;;;1.10;1.10;;;9.20;99.90;;;;;;494007;241;27974;-74
2024/02/22 09:22:04;;;;;;;0.77;0.77;;;9.20;99.90;;;;;;493849;241;28995;-74
2024/02/22 09:24:05;;;;;;;1.00;1.00;;;9.30;99.90;;;;;;494015;241;28152;-74
2024/02/22 09:26:07;;;;;;;0.90;0.90;;;9.20;99.90;;;;;;493981;241;28208;-75
2024/02/22 09:28:08;;;;;;;0.90;0.90;;;9.30;99.90;;;;;;493934;241;28098;-74
2024/02/22 09:30:09;;;;;;;1.00;1.00;;;9.30;99.90;;;;;;493801;241;27897;-74
2024/02/22 09:32:10;;;;;;;1.30;0.93;;;9.30;99.90;;;;;;494003;241;27511;-74
2024/02/22 09:34:12;;;;;;;1.17;1.13;;;9.30;99.90;;;;;;493973;241;27958;-74
2024/02/22 09:36:13;;;;;;;1.27;1.00;;;9.30;99.90;;;;;;493938;241;28068;-74
2024/02/22 09:38:14;;;;;;;1.00;1.00;;;9.40;99.90;;;;;;493922;241;28051;-73
2024/02/22 09:40:15;;;;;;;0.90;0.90;;;9.40;99.90;;;;;;493957;241;28060;-74
2024/02/22 09:42:18;;;;;;;0.90;0.90;;;9.30;99.90;;;;;;494013;241;27974;-76
2024/02/22 09:44:19;;;;;;;0.90;0.90;;;9.30;99.90;;;;;;493851;241;27867;-74
2024/02/22 09:46:19;;;;;;;0.90;0.90;;;9.40;99.90;;;;;;493817;241;28072;-75
2024/02/22 09:48:20;;;;;;;0.80;0.80;;;9.40;99.90;;;;;;493901;241;28037;-74
2024/02/22 09:50:22;;;;;;;1.10;1.00;;;9.40;99.90;;;;;;493990;241;27724;-73
2024/02/22 09:52:23;;;;;;;0.90;0.90;;;9.40;99.90;;;;;;494021;241;28521;-75
2024/02/22 09:54:25;;;;;;;1.43;1.13;;;9.40;99.90;;;;;;493979;241;28149;-75
2024/02/22 09:56:25;;;;;;;1.10;1.00;;;9.40;99.90;;;;;;493952;241;28372;-74
2024/02/22 09:58:27;;;;;;;0.90;0.90;;;9.40;99.90;;;;;;493911;241;27652;-73
2024/02/22 10:00:28;;;;;;;0.90;0.90;;;9.40;99.90;;;;;;493963;241;27961;-74
2024/02/22 10:02:29;;;;;;;1.30;0.80;;;9.40;99.90;;;;;;493940;241;28126;-74
2024/02/22 10:04:31;;;;;;;0.97;0.97;;;9.50;99.90;;;;;;493826;237;27886;-73
2024/02/22 10:06:32;;;;;;;0.90;0.90;;;9.50;99.90;;;;;;493916;241;27980;-74
2024/02/22 10:08:33;;;;;;;0.83;0.83;;;9.50;99.90;;;;;;494028;241;28521;-75
2024/02/22 10:10:35;;;;;;;0.90;0.90;;;9.50;99.90;;;;;;494016;241;28353;-74
2024/02/22 10:12:42;;;;;;;3.00;1.10;;;9.40;99.90;;;;;;493960;241;28577;-75
2024/02/22 10:14:37;;;;;;;0.83;0.83;;;9.40;99.90;;;;;;493723;241;28525;-74
2024/02/22 10:16:40;;;;;;;1.00;1.00;;;9.40;99.90;;;;;;493940;241;28531;-73
2024/02/22 10:18:42;;;;;;;0.93;0.93;;;9.40;99.90;;;;;;493922;241;28035;-75
2024/02/22 10:20:41;;;;;;;0.90;0.90;;;9.40;99.90;;;;;;493844;241;27825;-74
2024/02/22 10:22:42;;;;;;;1.10;1.00;;;9.40;99.90;;;;;;493944;241;28051;-73
2024/02/22 10:24:43;;;;;;;1.03;1.00;;;9.40;99.90;;;;;;493959;241;27935;-73
2024/02/22 10:26:44;;;;;;;0.90;0.90;;;9.40;99.90;;;;;;493955;241;27958;-74
2024/02/22 10:28:46;;;;;;;1.83;1.00;;;9.40;99.90;;;;;;493988;241;27955;-74
2024/02/22 10:30:47;;;;;;;1.00;1.00;;;9.40;99.90;;;;;;493980;241;27933;-73
2024/02/22 10:32:48;;;;;;;0.90;0.90;;;9.40;99.90;;;;;;493969;241;28086;-74
2024/02/22 10:34:50;;;;;;;1.00;1.00;;;9.50;99.90;;;;;;493971;241;27799;-73
2024/02/22 10:36:51;;;;;;;1.00;1.00;;;9.50;99.90;;;;;;493930;238;27931;-73
2024/02/22 10:38:52;;;;;;;1.00;1.00;;;9.50;99.90;;;;;;493905;241;27994;-75